createdAt,value
2018-12-25T00:01:55.952Z,5.98
2018-12-25T00:04:26.926Z,6.02
2018-12-25T00:06:57.893Z,5.94
2018-12-25T00:09:28.974Z,5.66
2018-12-25T00:12:00.274Z,5.68
2018-12-25T00:14:31.874Z,5.75
2018-12-25T00:17:02.832Z,5.82
2018-12-25T00:19:33.873Z,5.75
2018-12-25T00:22:04.907Z,5.80
2018-12-25T00:24:36.953Z,5.85
2018-12-25T00:27:07.907Z,5.83
2018-12-25T00:29:39.470Z,5.83
2018-12-25T00:32:10.737Z,5.80
2018-12-25T00:34:41.957Z,5.60
2018-12-25T00:37:13.275Z,5.69
2018-12-25T00:39:44.514Z,5.79
2018-12-25T00:42:15.594Z,5.66
2018-12-25T00:44:46.561Z,5.66
2018-12-25T00:47:17.528Z,5.53
2018-12-25T00:49:48.741Z,5.62
2018-12-25T00:52:21.194Z,5.61
2018-12-25T00:54:52.820Z,5.72
2018-12-25T00:57:24.123Z,5.60
2018-12-25T00:59:56.957Z,5.43
2018-12-25T01:02:28.219Z,5.50
2018-12-25T01:04:59.184Z,5.54
2018-12-25T01:07:30.387Z,5.41
2018-12-25T01:10:01.457Z,5.51
2018-12-25T01:12:33.675Z,5.46
2018-12-25T01:15:04.803Z,5.35
2018-12-25T01:17:35.750Z,5.30
2018-12-25T01:20:06.863Z,5.30
2018-12-25T01:22:38.893Z,5.25
2018-12-25T01:25:09.957Z,5.36
2018-12-25T01:27:41.578Z,5.43
2018-12-25T01:30:12.543Z,5.23
2018-12-25T01:32:43.755Z,5.30
2018-12-25T01:35:14.806Z,5.18
2018-12-25T01:37:45.833Z,5.25
2018-12-25T01:40:16.802Z,5.23
2018-12-25T01:42:47.768Z,5.34
2018-12-25T01:45:19.046Z,5.27
2018-12-25T01:47:50.102Z,5.30
2018-12-25T01:50:21.461Z,5.34
2018-12-25T01:52:52.603Z,5.34
2018-12-25T01:55:23.858Z,5.30
2018-12-25T01:57:54.811Z,5.23
2018-12-25T02:00:25.778Z,4.98
2018-12-25T02:02:57.972Z,5.12
2018-12-25T02:05:29.027Z,5.16
2018-12-25T02:07:59.992Z,5.25
2018-12-25T02:10:30.943Z,5.23
2018-12-25T02:13:03.140Z,5.28
2018-12-25T02:15:35.074Z,5.21
2018-12-25T02:18:06.041Z,5.27
2018-12-25T02:20:37.004Z,5.24
2018-12-25T02:23:08.235Z,5.20
2018-12-25T02:25:39.518Z,5.12
2018-12-25T02:28:10.474Z,5.10
2018-12-25T02:30:42.129Z,5.11
2018-12-25T02:33:13.077Z,5.18
2018-12-25T02:35:44.033Z,5.16
2018-12-25T02:38:15.049Z,5.23
2018-12-25T02:40:46.009Z,5.26
2018-12-25T02:43:16.992Z,5.19
2018-12-25T02:45:47.962Z,5.05
2018-12-25T02:48:22.172Z,5.09
2018-12-25T02:50:53.427Z,5.07
2018-12-25T02:53:24.371Z,5.00
2018-12-25T02:55:55.415Z,5.11
2018-12-25T02:58:26.379Z,5.14
2018-12-25T03:00:57.347Z,5.09
2018-12-25T03:03:28.641Z,5.05
2018-12-25T03:05:59.615Z,4.82
2018-12-25T03:08:30.632Z,4.83
2018-12-25T03:11:01.594Z,4.80
2018-12-25T03:13:33.526Z,4.88
2018-12-25T03:16:04.566Z,4.91
2018-12-25T03:18:35.737Z,4.96
2018-12-25T03:21:06.941Z,4.99
2018-12-25T03:23:38.841Z,4.98
2018-12-25T03:26:09.811Z,4.89
2018-12-25T03:28:40.961Z,4.91
2018-12-25T03:31:12.140Z,4.99
2018-12-25T03:33:43.102Z,4.82
2018-12-25T03:36:14.092Z,4.83
2018-12-25T03:38:45.385Z,4.67
2018-12-25T03:41:16.364Z,4.62
2018-12-25T03:43:47.559Z,4.60
2018-12-25T03:46:18.541Z,4.62
2018-12-25T03:48:49.488Z,4.50
2018-12-25T03:51:20.543Z,4.52
2018-12-25T03:53:52.428Z,4.54
2018-12-25T03:56:23.493Z,4.59
2018-12-25T03:58:54.495Z,4.47
2018-12-25T04:01:25.744Z,4.51
2018-12-25T04:03:56.993Z,4.62
2018-12-25T04:06:28.754Z,4.63
2018-12-25T04:09:00.045Z,4.58
2018-12-25T04:11:31.006Z,4.71
2018-12-25T04:14:02.002Z,4.75
2018-12-25T04:16:33.022Z,4.73
2018-12-25T04:19:04.215Z,4.60
2018-12-25T04:21:35.946Z,4.63
2018-12-25T04:24:06.870Z,4.40
2018-12-25T04:26:38.566Z,4.51
2018-12-25T04:29:09.539Z,4.57
2018-12-25T04:31:40.735Z,4.56
2018-12-25T04:34:11.696Z,4.55
2018-12-25T04:36:42.655Z,4.47
2018-12-25T04:39:13.623Z,4.42
2018-12-25T04:41:44.576Z,4.46
2018-12-25T04:44:15.541Z,4.45
2018-12-25T04:46:46.496Z,4.41
2018-12-25T04:49:17.480Z,4.32
2018-12-25T04:51:48.517Z,4.32
2018-12-25T04:54:20.191Z,4.35
2018-12-25T04:56:51.201Z,4.25
2018-12-25T04:59:22.164Z,4.07
2018-12-25T05:01:53.369Z,4.19
2018-12-25T05:04:24.348Z,4.14
2018-12-25T05:06:55.301Z,4.07
2018-12-25T05:09:26.522Z,4.19
2018-12-25T05:11:57.724Z,4.12
2018-12-25T05:14:28.687Z,4.01
2018-12-25T05:16:59.643Z,4.08
2018-12-25T05:19:30.676Z,4.11
2018-12-25T05:22:01.711Z,4.11
2018-12-25T05:24:32.919Z,4.02
2018-12-25T05:27:03.941Z,4.06
2018-12-25T05:29:34.898Z,3.89
2018-12-25T05:32:05.928Z,3.99
2018-12-25T05:34:36.883Z,4.07
2018-12-25T05:37:08.201Z,4.08
2018-12-25T05:39:39.159Z,4.09
2018-12-25T05:42:10.468Z,4.14
2018-12-25T05:44:43.401Z,4.10
2018-12-25T05:47:14.482Z,4.13
2018-12-25T05:49:45.744Z,4.06
2018-12-25T05:52:16.703Z,4.04
2018-12-25T05:54:47.693Z,4.05
2018-12-25T05:57:18.654Z,4.18
2018-12-25T05:59:49.635Z,4.13
2018-12-25T06:02:20.886Z,4.14
2018-12-25T06:04:52.228Z,4.14
2018-12-25T06:07:23.185Z,4.10
2018-12-25T06:09:54.789Z,4.14
2018-12-25T06:12:26.049Z,4.08
2018-12-25T06:14:57.653Z,4.05
2018-12-25T06:17:28.609Z,4.13
2018-12-25T06:19:59.669Z,4.07
2018-12-25T06:22:31.196Z,4.06
2018-12-25T06:25:02.172Z,4.21
2018-12-25T06:27:33.123Z,3.88
2018-12-25T06:30:04.237Z,3.92
2018-12-25T06:32:35.211Z,4.00
2018-12-25T06:35:06.334Z,4.11
2018-12-25T06:37:37.625Z,3.91
2018-12-25T06:40:08.925Z,4.00
2018-12-25T06:42:40.630Z,4.15
2018-12-25T06:45:11.597Z,4.06
2018-12-25T06:47:42.797Z,4.23
2018-12-25T06:50:14.251Z,4.15
2018-12-25T06:52:45.298Z,4.21
2018-12-25T06:55:16.602Z,4.15
2018-12-25T06:57:47.839Z,4.18
2018-12-25T07:00:18.840Z,4.31
2018-12-25T07:02:49.790Z,4.14
2018-12-25T07:05:21.805Z,4.00
2018-12-25T07:07:53.148Z,4.15
2018-12-25T07:10:24.406Z,4.23
2018-12-25T07:12:55.355Z,4.32
2018-12-25T07:15:33.007Z,4.15
2018-12-25T07:17:59.199Z,4.32
2018-12-25T07:20:30.431Z,4.23
2018-12-25T07:23:01.377Z,4.20
2018-12-25T07:25:32.619Z,4.03
2018-12-25T07:28:03.612Z,4.05
2018-12-25T07:30:34.956Z,4.13
2018-12-25T07:33:05.968Z,4.22
2018-12-25T07:35:37.195Z,4.18
2018-12-25T07:38:08.812Z,4.13
2018-12-25T07:40:41.049Z,4.19
2018-12-25T07:43:12.441Z,4.16
2018-12-25T07:45:43.400Z,3.97
2018-12-25T07:48:14.622Z,3.94
2018-12-25T07:50:46.180Z,3.85
2018-12-25T07:53:17.867Z,3.91
2018-12-25T07:55:49.208Z,3.87
2018-12-25T07:58:20.627Z,3.81
2018-12-25T08:00:52.688Z,3.87
2018-12-25T08:03:24.314Z,3.73
2018-12-25T08:05:55.589Z,3.64
2018-12-25T08:08:26.553Z,3.69
2018-12-25T08:10:57.789Z,3.73
2018-12-25T08:13:28.737Z,3.76
2018-12-25T08:16:00.754Z,3.78
2018-12-25T08:18:31.700Z,3.80
2018-12-25T08:21:02.962Z,3.85
2018-12-25T08:23:34.211Z,4.02
2018-12-25T08:26:05.581Z,4.07
2018-12-25T08:28:36.625Z,4.12
2018-12-25T08:31:08.326Z,4.11
2018-12-25T08:33:39.618Z,4.07
2018-12-25T08:36:10.644Z,4.06
2018-12-25T08:38:42.201Z,4.13
2018-12-25T08:41:13.451Z,4.01
2018-12-25T08:43:45.278Z,4.05
2018-12-25T08:46:16.264Z,4.05
2018-12-25T08:48:47.900Z,4.12
2018-12-25T08:51:18.874Z,4.14
2018-12-25T08:53:50.087Z,4.27
2018-12-25T08:56:21.301Z,4.16
2018-12-25T08:58:52.576Z,4.13
2018-12-25T09:01:23.617Z,4.14
2018-12-25T09:03:54.863Z,4.09
2018-12-25T09:06:25.835Z,4.08
2018-12-25T09:08:58.779Z,4.20
2018-12-25T09:11:29.934Z,4.15
2018-12-25T09:14:01.271Z,4.15
2018-12-25T09:16:32.632Z,4.14
2018-12-25T09:19:04.043Z,4.25
2018-12-25T09:21:35.021Z,4.28
2018-12-25T09:24:06.061Z,4.20
2018-12-25T09:26:37.237Z,4.19
2018-12-25T09:29:08.202Z,4.22
2018-12-25T09:31:39.562Z,4.31
2018-12-25T09:34:10.529Z,4.36
2018-12-25T09:36:41.740Z,4.15
2018-12-25T09:39:12.952Z,4.28
2018-12-25T09:41:44.171Z,4.16
2018-12-25T09:44:15.619Z,4.17
2018-12-25T09:46:47.177Z,4.20
2018-12-25T09:49:18.292Z,4.13
2018-12-25T09:51:54.544Z,3.97
2018-12-25T09:54:22.051Z,3.98
2018-12-25T09:56:53.061Z,4.06
2018-12-25T09:59:24.277Z,4.15
2018-12-25T10:01:55.680Z,4.11
2018-12-25T10:04:26.697Z,4.26
2018-12-25T10:06:58.338Z,4.20
2018-12-25T10:09:29.620Z,4.20
2018-12-25T10:12:00.634Z,4.23
2018-12-25T10:14:32.069Z,4.15
2018-12-25T10:17:03.446Z,4.24
2018-12-25T10:19:34.405Z,4.36
2018-12-25T10:22:05.396Z,4.38
2018-12-25T10:24:36.401Z,4.36
2018-12-25T10:27:07.373Z,4.31
2018-12-25T10:29:39.607Z,4.32
2018-12-25T10:32:10.584Z,4.38
2018-12-25T10:34:41.658Z,4.46
2018-12-25T10:37:12.955Z,4.48
2018-12-25T10:39:43.906Z,4.39
2018-12-25T10:42:14.927Z,4.52
2018-12-25T10:44:45.877Z,4.39
2018-12-25T10:47:16.888Z,4.33
2018-12-25T10:49:47.842Z,4.40
2018-12-25T10:52:18.838Z,4.46
2018-12-25T10:54:49.796Z,4.35
2018-12-25T10:57:21.043Z,4.41
2018-12-25T10:59:53.002Z,4.51
2018-12-25T11:02:24.146Z,4.54
2018-12-25T11:04:55.412Z,4.38
2018-12-25T11:07:26.397Z,4.47
2018-12-25T11:09:59.102Z,4.54
2018-12-25T11:12:31.439Z,4.61
2018-12-25T11:15:02.404Z,4.62
2018-12-25T11:17:34.087Z,4.64
2018-12-25T11:20:11.406Z,4.69
2018-12-25T11:22:38.662Z,4.70
2018-12-25T11:25:09.668Z,4.66
2018-12-25T11:27:41.585Z,4.71
2018-12-25T11:30:12.833Z,4.74
2018-12-25T11:32:44.125Z,4.72
2018-12-25T11:35:15.130Z,4.76
2018-12-25T11:37:46.130Z,4.65
2018-12-25T11:40:17.515Z,4.76
2018-12-25T11:42:49.553Z,4.83
2018-12-25T11:45:21.069Z,4.82
2018-12-25T11:47:52.446Z,4.78
2018-12-25T11:50:24.073Z,4.78
2018-12-25T11:52:55.054Z,4.72
2018-12-25T11:55:26.616Z,4.63
2018-12-25T11:57:57.912Z,4.74
2018-12-25T12:00:29.891Z,4.78
2018-12-25T12:03:00.948Z,4.72
2018-12-25T12:05:32.083Z,4.66
2018-12-25T12:08:03.312Z,4.81
2018-12-25T12:10:34.269Z,4.76
2018-12-25T12:13:05.814Z,4.64
2018-12-25T12:15:37.503Z,4.63
2018-12-25T12:18:08.439Z,4.77
2018-12-25T12:20:39.874Z,4.69
2018-12-25T12:23:11.578Z,4.76
2018-12-25T12:25:42.866Z,4.83
2018-12-25T12:28:13.918Z,4.92
2018-12-25T12:30:45.432Z,4.98
2018-12-25T12:33:16.423Z,5.05
2018-12-25T12:35:47.435Z,5.04
2018-12-25T12:38:18.664Z,5.11
2018-12-25T12:40:49.940Z,5.12
2018-12-25T12:43:21.524Z,5.03
2018-12-25T12:45:52.825Z,5.09
2018-12-25T12:48:24.444Z,4.89
2018-12-25T12:50:55.415Z,4.97
2018-12-25T12:53:26.734Z,5.07
2018-12-25T12:55:57.706Z,5.11
2018-12-25T12:58:29.575Z,5.09
2018-12-25T13:01:00.619Z,4.99
2018-12-25T13:03:31.684Z,5.07
2018-12-25T13:06:02.703Z,5.03
2018-12-25T13:08:33.683Z,5.12
2018-12-25T13:11:05.434Z,5.13
2018-12-25T13:13:36.408Z,5.09
2018-12-25T13:16:07.505Z,5.05
2018-12-25T13:18:39.116Z,5.09
2018-12-25T13:21:10.674Z,5.06
2018-12-25T13:23:41.659Z,5.20
2018-12-25T13:26:12.627Z,5.19
2018-12-25T13:28:43.645Z,5.16
2018-12-25T13:31:14.613Z,5.10
2018-12-25T13:33:45.894Z,5.00
2018-12-25T13:36:16.946Z,5.07
2018-12-25T13:38:47.943Z,5.17
2018-12-25T13:41:18.901Z,5.20
2018-12-25T13:43:49.930Z,5.08
2018-12-25T13:46:21.191Z,4.86
2018-12-25T13:48:52.168Z,4.83
2018-12-25T13:51:23.119Z,4.89
2018-12-25T13:53:54.112Z,4.95
2018-12-25T13:56:25.164Z,4.91
2018-12-25T13:58:56.482Z,5.00
2018-12-25T14:01:27.744Z,5.00
2018-12-25T14:04:00.288Z,5.07
2018-12-25T14:06:31.345Z,5.11
2018-12-25T14:09:02.429Z,5.13
2018-12-25T14:11:33.714Z,5.12
2018-12-25T14:14:04.731Z,5.23
2018-12-25T14:16:35.724Z,5.15
2018-12-25T14:19:06.987Z,5.09
2018-12-25T14:21:38.028Z,5.06
2018-12-25T14:24:09.035Z,5.12
2018-12-25T14:26:40.231Z,5.21
2018-12-25T14:29:11.234Z,5.24
2018-12-25T14:31:42.182Z,5.14
2018-12-25T14:34:13.433Z,5.05
2018-12-25T14:36:44.628Z,5.15
2018-12-25T14:39:15.624Z,5.10
2018-12-25T14:41:47.422Z,5.03
2018-12-25T14:44:18.416Z,5.01
2018-12-25T14:46:49.371Z,5.08
2018-12-25T14:49:21.006Z,5.05
2018-12-25T14:51:52.208Z,5.03
2018-12-25T14:54:23.502Z,5.24
2018-12-25T14:56:54.661Z,5.17
2018-12-25T14:59:25.726Z,5.03
2018-12-25T15:01:56.707Z,5.04
2018-12-25T15:04:27.976Z,5.07
2018-12-25T15:06:59.247Z,5.00
2018-12-25T15:09:31.492Z,4.96
2018-12-25T15:12:02.735Z,5.06
2018-12-25T15:14:33.868Z,5.06
2018-12-25T15:17:05.199Z,5.11
2018-12-25T15:19:36.328Z,5.16
2018-12-25T15:22:07.594Z,5.12
2018-12-25T15:24:38.895Z,5.22
2018-12-25T15:27:09.935Z,5.08
2018-12-25T15:29:41.080Z,4.92
2018-12-25T15:32:13.035Z,4.93
2018-12-25T15:34:44.091Z,4.83
2018-12-25T15:37:15.401Z,5.00
2018-12-25T15:39:46.700Z,4.84
2018-12-25T15:42:17.652Z,4.80
2018-12-25T15:44:49.042Z,4.85
2018-12-25T15:47:19.990Z,4.95
2018-12-25T15:49:51.347Z,4.80
2018-12-25T15:52:22.774Z,4.97
2018-12-25T15:54:54.260Z,5.01
2018-12-25T15:57:25.281Z,4.91
2018-12-25T15:59:56.641Z,4.78
2018-12-25T16:02:27.781Z,4.78
2018-12-25T16:04:59.516Z,4.84
2018-12-25T16:07:30.609Z,4.91
2018-12-25T16:10:02.127Z,4.80
2018-12-25T16:12:33.465Z,4.85
2018-12-25T16:15:06.173Z,4.86
2018-12-25T16:17:37.692Z,4.73
2018-12-25T16:20:11.616Z,4.63
2018-12-25T16:22:42.965Z,4.76
2018-12-25T16:25:14.030Z,4.73
2018-12-25T16:27:45.346Z,4.72
2018-12-25T16:30:16.401Z,4.64
2018-12-25T16:32:47.442Z,4.69
2018-12-25T16:35:18.641Z,4.60
2018-12-25T16:37:51.042Z,4.61
2018-12-25T16:40:22.226Z,4.64
2018-12-25T16:42:53.219Z,4.61
2018-12-25T16:45:24.473Z,4.58
2018-12-25T16:47:55.718Z,4.72
2018-12-25T16:50:26.796Z,4.70
2018-12-25T16:52:57.789Z,4.60
2018-12-25T16:55:29.149Z,4.51
2018-12-25T16:58:00.103Z,4.67
2018-12-25T17:00:32.249Z,4.66
2018-12-25T17:03:03.518Z,4.66
2018-12-25T17:05:35.472Z,4.65
2018-12-25T17:08:07.934Z,4.83
2018-12-25T17:10:39.152Z,4.83
2018-12-25T17:13:10.893Z,4.78
2018-12-25T17:15:41.967Z,4.74
2018-12-25T17:18:13.325Z,4.74
2018-12-25T17:20:44.399Z,4.69
2018-12-25T17:23:15.437Z,4.59
2018-12-25T17:25:46.416Z,4.63
2018-12-25T17:28:17.362Z,4.64
2018-12-25T17:30:48.355Z,4.63
2018-12-25T17:33:19.816Z,4.51
2018-12-25T17:35:50.858Z,4.48
2018-12-25T17:38:22.050Z,4.47
2018-12-25T17:40:53.423Z,4.44
2018-12-25T17:43:24.386Z,4.36
2018-12-25T17:45:55.447Z,4.38
2018-12-25T17:48:26.468Z,4.51
2018-12-25T17:50:57.796Z,4.57
2018-12-25T17:53:29.249Z,4.52
2018-12-25T17:56:00.313Z,4.51
2018-12-25T17:58:31.256Z,4.50
2018-12-25T18:01:02.527Z,4.60
2018-12-25T18:03:33.818Z,4.46
2018-12-25T18:06:05.143Z,4.51
2018-12-25T18:08:36.313Z,4.47
2018-12-25T18:11:07.555Z,4.43
2018-12-25T18:13:38.510Z,4.49
2018-12-25T18:16:09.553Z,4.38
2018-12-25T18:18:41.124Z,4.29
2018-12-25T18:21:13.570Z,4.35
2018-12-25T18:23:44.519Z,4.39
2018-12-25T18:26:15.575Z,4.43
2018-12-25T18:28:46.528Z,4.33
2018-12-25T18:31:17.832Z,4.35
2018-12-25T18:33:49.288Z,4.25
2018-12-25T18:36:20.828Z,4.17
2018-12-25T18:38:51.777Z,4.22
2018-12-25T18:41:22.756Z,4.31
2018-12-25T18:43:54.706Z,4.30
2018-12-25T18:46:25.767Z,4.35
2018-12-25T18:48:57.117Z,4.35
2018-12-25T18:51:28.652Z,4.37
2018-12-25T18:53:59.842Z,4.32
2018-12-25T18:56:30.848Z,4.33
2018-12-25T18:59:02.063Z,4.15
2018-12-25T19:01:33.138Z,4.15
2018-12-25T19:04:04.126Z,4.21
2018-12-25T19:06:35.787Z,4.24
2018-12-25T19:09:08.618Z,4.18
2018-12-25T19:11:41.136Z,4.26
2018-12-25T19:14:12.403Z,4.28
2018-12-25T19:16:43.652Z,4.33
2018-12-25T19:19:14.988Z,4.33
2018-12-25T19:21:47.464Z,4.41
2018-12-25T19:24:19.838Z,4.42
2018-12-25T19:26:50.851Z,4.37
2018-12-25T19:29:22.177Z,4.40
2018-12-25T19:31:53.436Z,4.35
2018-12-25T19:34:24.798Z,4.39
2018-12-25T19:36:56.021Z,4.43
2018-12-25T19:39:27.336Z,4.38
2018-12-25T19:41:58.578Z,4.38
2018-12-25T19:44:30.217Z,4.48
2018-12-25T19:47:01.168Z,4.44
2018-12-25T19:49:32.837Z,4.45
2018-12-25T19:52:04.134Z,4.56
2018-12-25T19:54:35.372Z,4.54
2018-12-25T19:57:07.664Z,4.58
2018-12-25T19:59:39.158Z,4.66
2018-12-25T20:02:10.470Z,4.61
2018-12-25T20:05:55.076Z,4.60
2018-12-25T20:09:08.785Z,4.71
2018-12-25T20:13:03.905Z,4.63
2018-12-25T20:16:19.654Z,4.67
2018-12-25T20:19:47.563Z,4.49
2018-12-25T20:23:35.131Z,4.56
2018-12-25T20:27:14.037Z,4.65
2018-12-25T20:30:30.344Z,4.64
2018-12-25T20:33:24.091Z,4.69
2018-12-25T20:37:16.046Z,4.69
2018-12-25T20:40:50.367Z,4.62
2018-12-25T20:44:28.805Z,4.74
2018-12-25T20:48:05.506Z,4.80
2018-12-25T20:51:36.619Z,4.54
2018-12-25T20:55:23.269Z,4.80
2018-12-25T20:58:51.440Z,4.73
2018-12-25T21:02:19.062Z,4.70
2018-12-25T21:05:29.438Z,4.74
2018-12-25T21:08:47.851Z,4.79
2018-12-25T21:12:09.942Z,4.79
2018-12-25T21:15:31.489Z,4.70
2018-12-25T21:19:06.511Z,4.54
2018-12-25T21:22:08.844Z,4.76
2018-12-25T21:25:34.348Z,4.64
2018-12-25T21:28:03.405Z,4.64
2018-12-25T21:30:34.604Z,4.59
2018-12-25T21:33:05.965Z,4.77
2018-12-25T21:35:37.094Z,4.73
2018-12-25T21:38:09.194Z,4.80
2018-12-25T21:40:41.882Z,4.99
2018-12-25T21:43:12.996Z,4.98
2018-12-25T21:45:44.363Z,4.98
2018-12-25T21:48:15.729Z,4.80
2018-12-25T21:50:47.265Z,4.85
2018-12-25T21:53:18.395Z,4.86
2018-12-25T21:55:50.681Z,4.83
2018-12-25T21:58:22.812Z,4.92
2018-12-25T22:00:54.171Z,4.89
2018-12-25T22:03:25.453Z,4.91
2018-12-25T22:05:56.702Z,4.85
2018-12-25T22:08:29.575Z,4.77
2018-12-25T22:11:00.627Z,4.73
2018-12-25T22:13:31.895Z,4.62
2018-12-25T22:16:03.172Z,4.77
2018-12-25T22:18:34.129Z,4.88
2018-12-25T22:21:05.496Z,4.75
2018-12-25T22:23:36.844Z,4.79
2018-12-25T22:26:08.104Z,4.72
2018-12-25T22:28:39.661Z,4.68
2018-12-25T22:31:10.858Z,4.77
2018-12-25T22:33:42.351Z,4.74
2018-12-25T22:36:13.862Z,4.92
2018-12-25T22:38:45.261Z,4.93
2018-12-25T22:41:16.352Z,4.88
2018-12-25T22:43:48.076Z,4.97
2018-12-25T22:46:19.121Z,4.95
2018-12-25T22:48:50.417Z,4.83
2018-12-25T22:51:22.367Z,4.90
2018-12-25T22:53:53.646Z,4.82
2018-12-25T22:56:25.191Z,4.79
2018-12-25T22:58:56.358Z,4.69
2018-12-25T23:01:27.478Z,4.76
2018-12-25T23:03:58.443Z,4.76
2018-12-25T23:06:29.665Z,4.78
2018-12-25T23:09:00.912Z,4.78
2018-12-25T23:11:32.229Z,4.91
2018-12-25T23:14:03.514Z,4.80
2018-12-25T23:16:34.478Z,4.72
2018-12-25T23:19:05.604Z,4.81
2018-12-25T23:21:36.571Z,4.83
2018-12-25T23:24:07.770Z,4.87
2018-12-25T23:26:38.757Z,4.84
2018-12-25T23:29:09.803Z,4.78
2018-12-25T23:31:41.933Z,4.83
2018-12-25T23:34:13.169Z,4.83
2018-12-25T23:36:44.389Z,4.82
2018-12-25T23:39:15.507Z,4.80
2018-12-25T23:41:46.505Z,4.76
2018-12-25T23:44:17.735Z,4.65
2018-12-25T23:46:48.696Z,4.72
2018-12-25T23:49:19.758Z,4.69
2018-12-25T23:51:50.722Z,4.61
2018-12-25T23:54:21.692Z,4.70
2018-12-25T23:56:52.659Z,4.61
2018-12-25T23:59:23.620Z,4.66
